createdAt,value
2019-01-11T00:14:30.524Z,10.63
2019-01-11T00:44:09.352Z,10.50
2019-01-11T00:46:13.189Z,11.80
2019-01-11T00:59:56.998Z,12.10
2019-01-11T01:02:02.076Z,12.30
2019-01-11T01:14:57.043Z,11.23
2019-01-11T01:29:39.247Z,12.60
2019-01-11T01:34:01.667Z,12.30
2019-01-11T01:40:59.548Z,13.30
2019-01-11T01:43:05.020Z,14.07
2019-01-11T02:32:54.706Z,14.37
2019-01-11T03:11:48.205Z,14.80
2019-01-11T03:23:38.689Z,16.07
2019-01-11T03:38:32.662Z,15.40
2019-01-11T03:55:09.134Z,16.60
2019-01-11T04:11:26.894Z,15.63
2019-01-11T04:13:30.837Z,16.30
2019-01-11T04:33:20.252Z,16.80
2019-01-11T04:56:57.666Z,16.90
2019-01-11T05:01:25.666Z,17.20
2019-01-11T05:11:08.951Z,16.03
2019-01-11T05:27:01.644Z,17.10
2019-01-11T05:40:16.298Z,17.00
2019-01-11T06:08:50.071Z,18.10
2019-01-11T06:22:56.933Z,17.77
2019-01-11T06:25:00.624Z,18.60
2019-01-11T06:41:44.503Z,19.47
2019-01-11T06:43:49.767Z,20.33
2019-01-11T07:12:12.626Z,21.00
2019-01-11T07:19:35.945Z,21.47
2019-01-11T07:21:41.579Z,25.53
2019-01-11T07:23:45.151Z,20.97
2019-01-11T07:25:48.773Z,20.70
2019-01-11T07:27:56.848Z,22.63
2019-01-11T07:30:00.591Z,20.67
2019-01-11T07:32:04.659Z,22.23
2019-01-11T07:34:08.465Z,23.70
2019-01-11T07:36:13.824Z,24.43
2019-01-11T07:38:17.432Z,23.30
2019-01-11T07:40:21.266Z,24.00
2019-01-11T07:42:26.551Z,23.30
2019-01-11T07:44:30.781Z,20.93
2019-01-11T07:46:34.437Z,23.83
2019-01-11T07:48:39.254Z,23.30
2019-01-11T07:50:49.166Z,23.27
2019-01-11T07:52:48.357Z,21.83
2019-01-11T07:54:52.135Z,24.37
2019-01-11T07:56:55.878Z,25.30
2019-01-11T07:58:59.707Z,23.37
2019-01-11T08:01:03.494Z,23.47
2019-01-11T08:03:07.222Z,23.83
2019-01-11T08:05:11.317Z,24.80
2019-01-11T08:07:15.041Z,26.07
2019-01-11T08:09:18.804Z,25.80
2019-01-11T08:11:22.590Z,26.77
2019-01-11T08:13:26.299Z,25.77
2019-01-11T08:15:30.098Z,25.10
2019-01-11T08:17:33.871Z,26.60
2019-01-11T08:19:37.502Z,26.27
2019-01-11T08:21:41.268Z,30.30
2019-01-11T08:23:44.997Z,26.00
2019-01-11T08:25:48.737Z,25.83
2019-01-11T08:27:52.534Z,25.30
2019-01-11T08:29:56.397Z,25.53
2019-01-11T08:32:00.190Z,26.10
2019-01-11T08:34:04.391Z,33.50
2019-01-11T08:36:08.156Z,28.20
2019-01-11T08:38:12.135Z,25.27
2019-01-11T08:40:15.860Z,25.60
2019-01-11T08:42:19.734Z,23.87
2019-01-11T08:44:23.384Z,23.77
2019-01-11T08:46:27.215Z,26.50
2019-01-11T08:48:30.949Z,26.23
2019-01-11T08:50:34.788Z,23.47
2019-01-11T08:52:38.467Z,24.50
2019-01-11T08:54:42.259Z,25.30
2019-01-11T08:56:46.054Z,23.43
2019-01-11T08:58:50.694Z,26.90
2019-01-11T09:00:54.572Z,25.63
2019-01-11T09:02:58.382Z,21.87
2019-01-11T09:05:02.108Z,25.00
2019-01-11T09:07:06.065Z,24.77
2019-01-11T09:09:09.981Z,25.70
2019-01-11T09:11:13.757Z,23.93
2019-01-11T09:13:17.561Z,27.37
2019-01-11T09:15:21.366Z,27.90
2019-01-11T09:17:25.117Z,25.63
2019-01-11T09:19:28.848Z,23.70
2019-01-11T09:21:34.114Z,27.97
2019-01-11T09:23:37.821Z,27.60
2019-01-11T09:25:41.591Z,28.07
2019-01-11T09:27:45.290Z,29.40
2019-01-11T09:29:49.161Z,26.70
2019-01-11T09:31:52.965Z,28.40
2019-01-11T09:33:56.751Z,28.90
2019-01-11T09:36:00.437Z,28.10
2019-01-11T09:38:04.237Z,31.23
2019-01-11T09:40:09.248Z,29.97
2019-01-11T09:42:14.203Z,30.63
2019-01-11T09:44:17.881Z,26.37
2019-01-11T09:46:21.647Z,26.60
2019-01-11T09:48:25.459Z,28.77
2019-01-11T09:50:29.182Z,27.57
2019-01-11T09:52:32.885Z,28.70
2019-01-11T09:54:36.615Z,26.70
2019-01-11T09:56:40.361Z,24.10
2019-01-11T09:58:44.062Z,29.63
2019-01-11T10:00:48.051Z,27.33
2019-01-11T10:02:59.570Z,30.40
2019-01-11T10:05:04.397Z,28.67
2019-01-11T10:07:12.431Z,25.10
2019-01-11T10:09:16.145Z,26.70
2019-01-11T10:11:19.934Z,30.30
2019-01-11T10:13:23.741Z,24.90
2019-01-11T10:15:27.855Z,27.23
2019-01-11T10:17:31.499Z,26.53
2019-01-11T10:19:35.748Z,26.93
2019-01-11T10:21:40.165Z,26.77
2019-01-11T10:23:43.953Z,27.10
2019-01-11T10:25:47.673Z,26.87
2019-01-11T10:27:51.465Z,25.70
2019-01-11T10:29:55.157Z,26.03
2019-01-11T10:31:58.896Z,26.83
2019-01-11T10:34:02.724Z,25.83
2019-01-11T10:36:06.586Z,27.30
2019-01-11T10:38:10.317Z,26.77
2019-01-11T10:40:16.156Z,26.83
2019-01-11T10:42:20.222Z,26.30
2019-01-11T10:44:23.969Z,24.90
2019-01-11T10:46:29.357Z,25.43
2019-01-11T10:48:32.979Z,26.03
2019-01-11T10:50:36.766Z,24.10
2019-01-11T10:52:40.576Z,26.17
2019-01-11T10:54:44.413Z,25.60
2019-01-11T10:56:48.144Z,22.00
2019-01-11T10:58:53.438Z,25.93
2019-01-11T11:00:57.123Z,23.33
2019-01-11T11:03:01.675Z,25.17
2019-01-11T11:05:06.302Z,26.13
2019-01-11T11:07:10.079Z,26.53
2019-01-11T11:09:13.732Z,26.87
2019-01-11T11:11:17.508Z,26.40
2019-01-11T11:13:21.098Z,27.23
2019-01-11T11:15:24.925Z,30.70
2019-01-11T11:17:28.752Z,25.07
2019-01-11T11:19:32.549Z,27.60
2019-01-11T11:21:36.312Z,25.47
2019-01-11T11:23:39.997Z,27.00
2019-01-11T11:25:43.852Z,27.97
2019-01-11T11:27:47.600Z,27.03
2019-01-11T11:29:51.406Z,29.43
2019-01-11T11:31:54.984Z,27.87
2019-01-11T11:33:58.692Z,27.00
2019-01-11T11:36:04.200Z,26.97
2019-01-11T11:38:07.881Z,26.07
2019-01-11T11:40:11.984Z,24.70
2019-01-11T11:42:16.879Z,26.10
2019-01-11T11:44:20.696Z,25.57
2019-01-11T11:46:24.510Z,23.83
2019-01-11T11:48:28.286Z,25.40
2019-01-11T11:50:32.168Z,26.20
2019-01-11T11:52:37.098Z,22.50
2019-01-11T11:54:40.913Z,25.30
2019-01-11T11:56:44.703Z,21.10
2019-01-11T11:58:48.542Z,20.20
2019-01-11T12:00:52.314Z,20.63
2019-01-11T12:02:56.057Z,21.20
2019-01-11T12:04:59.735Z,20.80
2019-01-11T12:07:07.627Z,20.33
2019-01-11T12:09:09.976Z,20.83
2019-01-11T12:11:13.757Z,20.77
2019-01-11T12:13:17.481Z,18.40
2019-01-11T12:15:21.157Z,17.67
2019-01-11T12:17:24.954Z,18.43
2019-01-11T12:19:28.628Z,19.37
2019-01-11T12:21:32.617Z,16.03
2019-01-11T12:23:36.446Z,20.33
2019-01-11T12:28:03.134Z,17.70
2019-01-11T12:29:56.512Z,18.03
2019-01-11T12:32:01.022Z,18.63
2019-01-11T12:34:04.938Z,18.40
2019-01-11T12:36:08.675Z,15.73
2019-01-11T12:38:15.215Z,18.10
2019-01-11T12:40:19.056Z,15.27
2019-01-11T12:42:22.767Z,19.80
2019-01-11T12:44:28.152Z,19.40
2019-01-11T12:46:31.863Z,18.13
2019-01-11T12:48:35.506Z,17.43
2019-01-11T12:50:39.254Z,22.13
2019-01-11T12:52:43.022Z,19.80
2019-01-11T12:54:46.752Z,20.40
2019-01-11T12:56:50.571Z,18.43
2019-01-11T12:58:54.349Z,19.97
2019-01-11T13:00:58.086Z,18.40
2019-01-11T13:03:01.719Z,16.50
2019-01-11T13:05:08.052Z,16.67
2019-01-11T13:07:11.839Z,16.27
2019-01-11T13:09:15.579Z,20.10
2019-01-11T13:11:19.258Z,16.40
2019-01-11T13:13:23.059Z,17.77
2019-01-11T13:15:26.856Z,17.97
2019-01-11T13:17:30.889Z,17.23
2019-01-11T13:19:34.643Z,17.50
2019-01-11T13:21:38.325Z,18.40
2019-01-11T13:23:43.735Z,18.83
2019-01-11T13:25:47.453Z,17.77
2019-01-11T13:27:51.372Z,18.90
2019-01-11T13:29:55.137Z,19.80
2019-01-11T13:31:58.967Z,18.50
2019-01-11T13:34:02.744Z,20.13
2019-01-11T13:36:08.131Z,18.83
2019-01-11T13:38:11.996Z,19.00
2019-01-11T13:40:18.232Z,19.87
2019-01-11T13:42:21.983Z,20.73
2019-01-11T13:44:26.081Z,18.70
2019-01-11T13:46:30.312Z,17.33
2019-01-11T13:48:34.485Z,19.90
2019-01-11T13:50:39.213Z,19.97
2019-01-11T13:52:42.907Z,19.63
2019-01-11T13:54:46.772Z,18.40
2019-01-11T13:56:50.663Z,19.73
2019-01-11T13:58:54.320Z,19.80
2019-01-11T14:00:58.127Z,17.80
2019-01-11T14:03:01.937Z,20.07
2019-01-11T14:05:07.714Z,19.60
2019-01-11T14:07:15.087Z,19.37
2019-01-11T14:09:19.225Z,20.63
2019-01-11T14:11:24.395Z,20.50
2019-01-11T14:13:28.371Z,19.60
2019-01-11T14:15:34.558Z,18.37
2019-01-11T14:17:38.438Z,16.90
2019-01-11T14:19:42.750Z,18.57
2019-01-11T14:21:46.564Z,17.90
2019-01-11T14:23:50.365Z,18.30
2019-01-11T14:25:54.295Z,17.50
2019-01-11T14:27:59.398Z,15.87
2019-01-11T14:30:03.473Z,16.77
2019-01-11T14:32:07.235Z,15.97
2019-01-11T14:34:15.051Z,17.73
2019-01-11T14:36:18.805Z,15.83
2019-01-11T14:38:22.584Z,16.33
2019-01-11T14:40:27.780Z,17.80
2019-01-11T14:42:31.527Z,17.03
2019-01-11T14:44:35.339Z,16.50
2019-01-11T14:46:39.088Z,15.40
2019-01-11T14:48:44.471Z,15.73
2019-01-11T14:50:48.242Z,14.40
2019-01-11T14:52:51.901Z,15.90
2019-01-11T14:54:55.620Z,16.67
2019-01-11T14:56:59.328Z,16.20
2019-01-11T14:59:03.179Z,17.73
2019-01-11T15:01:07.025Z,17.20
2019-01-11T15:03:12.351Z,16.27
2019-01-11T15:05:17.212Z,16.97
2019-01-11T15:07:20.853Z,16.70
2019-01-11T15:09:24.643Z,16.10
2019-01-11T15:11:29.343Z,16.53
2019-01-11T15:13:33.198Z,17.63
2019-01-11T15:15:37.592Z,16.50
2019-01-11T15:17:42.888Z,17.27
2019-01-11T15:19:46.735Z,17.70
2019-01-11T15:21:50.553Z,16.60
2019-01-11T15:23:54.333Z,18.90
2019-01-11T15:26:02.417Z,19.30
2019-01-11T15:28:06.161Z,17.17
2019-01-11T15:30:14.538Z,16.97
2019-01-11T15:32:19.957Z,18.30
2019-01-11T15:34:23.812Z,17.90
2019-01-11T15:36:27.438Z,19.23
2019-01-11T15:38:31.188Z,19.47
2019-01-11T15:40:36.933Z,18.07
2019-01-11T15:42:40.237Z,16.63
2019-01-11T15:44:44.001Z,18.87
2019-01-11T15:46:47.773Z,18.40
2019-01-11T15:48:51.411Z,18.27
2019-01-11T15:50:55.175Z,14.40
2019-01-11T15:53:00.542Z,18.40
2019-01-11T15:55:09.616Z,19.60
2019-01-11T15:57:13.355Z,17.60
2019-01-11T15:59:18.687Z,17.90
2019-01-11T16:01:23.523Z,17.57
2019-01-11T16:03:27.368Z,17.90
2019-01-11T16:05:31.093Z,18.70
2019-01-11T16:07:34.726Z,16.97
2019-01-11T16:09:57.456Z,19.83
2019-01-11T16:12:09.988Z,19.10
2019-01-11T16:14:19.479Z,21.20
2019-01-11T16:16:23.501Z,23.00
2019-01-11T16:18:27.264Z,20.37
2019-01-11T16:20:31.070Z,18.23
2019-01-11T16:22:39.586Z,18.53
2019-01-11T16:24:41.360Z,20.50
2019-01-11T16:26:45.074Z,20.73
2019-01-11T16:28:48.839Z,21.70
2019-01-11T16:30:52.534Z,21.57
2019-01-11T16:32:56.411Z,21.50
2019-01-11T16:35:00.177Z,20.90
2019-01-11T16:37:03.926Z,22.10
2019-01-11T16:39:08.815Z,20.93
2019-01-11T16:41:12.510Z,22.17
2019-01-11T16:43:17.317Z,20.27
2019-01-11T16:45:21.166Z,22.87
2019-01-11T16:47:24.909Z,19.67
2019-01-11T16:49:28.670Z,21.50
2019-01-11T16:51:32.330Z,20.50
2019-01-11T16:53:36.047Z,19.83
2019-01-11T16:55:39.721Z,24.67
2019-01-11T16:57:43.365Z,22.10
2019-01-11T16:59:47.043Z,20.53
2019-01-11T17:01:50.678Z,25.47
2019-01-11T17:03:56.312Z,24.00
2019-01-11T17:05:59.991Z,20.77
2019-01-11T17:08:03.858Z,23.40
2019-01-11T17:10:10.387Z,23.83
2019-01-11T17:12:14.128Z,23.83
2019-01-11T17:14:17.914Z,22.90
2019-01-11T17:16:21.870Z,22.53
2019-01-11T17:18:25.766Z,24.00
2019-01-11T17:20:29.705Z,24.63
2019-01-11T17:22:35.795Z,23.20
2019-01-11T17:24:39.464Z,22.20
2019-01-11T17:26:43.248Z,24.60
2019-01-11T17:28:47.013Z,23.63
2019-01-11T17:30:50.763Z,23.70
2019-01-11T17:32:54.977Z,23.90
2019-01-11T17:34:58.708Z,22.60
2019-01-11T17:37:02.766Z,24.87
2019-01-11T17:39:07.665Z,23.23
2019-01-11T17:41:11.718Z,23.33
2019-01-11T17:43:15.498Z,23.40
2019-01-11T17:45:19.200Z,25.07
2019-01-11T17:47:23.084Z,23.30
2019-01-11T17:49:26.846Z,23.73
2019-01-11T17:51:30.886Z,24.00
2019-01-11T17:53:34.618Z,23.57
2019-01-11T17:55:38.432Z,23.80
2019-01-11T17:57:42.097Z,25.00
2019-01-11T17:59:45.807Z,27.80
2019-01-11T18:01:49.464Z,27.97
2019-01-11T18:03:53.169Z,27.40
2019-01-11T18:05:56.839Z,28.77
2019-01-11T18:08:00.498Z,26.33
2019-01-11T18:10:06.477Z,25.50
2019-01-11T18:12:10.194Z,27.17
2019-01-11T18:14:13.979Z,23.00
2019-01-11T18:16:17.719Z,24.80
2019-01-11T18:18:21.483Z,24.47
2019-01-11T18:20:29.519Z,31.60
2019-01-11T18:22:33.313Z,30.60
2019-01-11T18:24:37.214Z,28.50
2019-01-11T18:26:40.948Z,27.53
2019-01-11T18:28:44.683Z,26.27
2019-01-11T18:30:48.459Z,23.40
2019-01-11T18:32:52.586Z,23.77
2019-01-11T18:34:56.855Z,24.57
2019-01-11T18:37:01.236Z,23.80
2019-01-11T18:39:08.170Z,21.07
2019-01-11T18:41:12.030Z,25.50
2019-01-11T18:43:15.701Z,23.60
2019-01-11T18:45:19.558Z,22.93
2019-01-11T18:47:23.912Z,23.17
2019-01-11T18:49:28.063Z,24.77
2019-01-11T18:51:32.405Z,25.23
2019-01-11T18:53:36.391Z,22.83
2019-01-11T18:55:40.598Z,26.30
2019-01-11T18:57:45.404Z,25.87
2019-01-11T18:59:49.579Z,25.50
2019-01-11T19:01:53.625Z,26.53
2019-01-11T19:03:57.415Z,24.90
2019-01-11T19:06:01.182Z,23.67
2019-01-11T19:08:04.926Z,26.00
2019-01-11T19:10:17.078Z,26.50
2019-01-11T19:12:21.084Z,23.17
2019-01-11T19:14:24.802Z,26.73
2019-01-11T19:16:28.513Z,24.80
2019-01-11T19:18:32.110Z,24.73
2019-01-11T19:20:36.261Z,26.13
2019-01-11T19:22:40.044Z,23.80
2019-01-11T19:24:43.842Z,21.90
2019-01-11T19:26:47.601Z,25.10
2019-01-11T19:28:51.334Z,23.73
2019-01-11T19:30:55.109Z,24.00
2019-01-11T19:32:58.897Z,22.53
2019-01-11T19:35:02.758Z,24.90
2019-01-11T19:37:06.601Z,24.53
2019-01-11T19:39:10.509Z,26.17
2019-01-11T19:41:14.331Z,24.53
2019-01-11T19:43:18.622Z,23.60
2019-01-11T19:45:22.755Z,21.33
2019-01-11T19:47:26.576Z,21.70
2019-01-11T19:49:30.358Z,24.20
2019-01-11T19:51:34.309Z,20.63
2019-01-11T19:53:38.099Z,22.07
2019-01-11T19:55:42.327Z,24.33
2019-01-11T19:57:46.122Z,24.00
2019-01-11T19:59:49.811Z,21.97
2019-01-11T20:01:53.756Z,21.70
2019-01-11T20:03:57.398Z,20.60
2019-01-11T20:06:01.252Z,20.33
2019-01-11T20:08:05.115Z,18.73
2019-01-11T20:10:11.885Z,22.50
2019-01-11T20:12:15.742Z,20.47
2019-01-11T20:14:19.463Z,19.43
2019-01-11T20:16:23.291Z,20.97
2019-01-11T20:18:27.025Z,19.03
2019-01-11T20:20:30.808Z,19.97
2019-01-11T20:22:34.658Z,19.00
2019-01-11T20:24:39.412Z,20.97
2019-01-11T20:26:43.345Z,21.77
2019-01-11T20:28:47.029Z,21.97
2019-01-11T20:30:50.711Z,22.07
2019-01-11T20:32:54.692Z,21.53
2019-01-11T20:34:58.429Z,23.17
2019-01-11T20:37:04.648Z,21.47
2019-01-11T20:39:09.696Z,22.03
2019-01-11T20:41:13.491Z,21.00
2019-01-11T20:43:17.317Z,21.83
2019-01-11T20:45:21.651Z,22.63
2019-01-11T20:47:25.247Z,21.83
2019-01-11T20:49:28.993Z,23.13
2019-01-11T20:51:32.673Z,22.30
2019-01-11T20:53:41.507Z,21.40
2019-01-11T20:55:41.830Z,21.97
2019-01-11T20:57:45.966Z,21.17
2019-01-11T20:59:49.779Z,21.97
2019-01-11T21:01:53.460Z,23.43
2019-01-11T21:03:57.244Z,23.27
2019-01-11T21:06:01.109Z,22.73
2019-01-11T21:08:05.061Z,23.10
2019-01-11T21:10:11.063Z,23.27
2019-01-11T21:12:14.845Z,22.80
2019-01-11T21:14:18.681Z,24.37
2019-01-11T21:16:22.628Z,23.50
2019-01-11T21:18:26.371Z,21.87
2019-01-11T21:20:30.009Z,28.80
2019-01-11T21:22:33.781Z,21.97
2019-01-11T21:24:37.511Z,23.80
2019-01-11T21:26:41.288Z,24.73
2019-01-11T21:28:45.001Z,22.30
2019-01-11T21:30:48.721Z,23.20
2019-01-11T21:32:52.743Z,25.40
2019-01-11T21:34:56.408Z,23.93
2019-01-11T21:37:00.036Z,21.70
2019-01-11T21:39:05.550Z,22.83
2019-01-11T21:41:09.277Z,25.10
2019-01-11T21:43:12.971Z,23.07
2019-01-11T21:45:17.616Z,24.03
2019-01-11T21:47:21.340Z,20.37
2019-01-11T21:49:24.954Z,21.80
2019-01-11T21:51:28.686Z,19.90
2019-01-11T21:53:32.564Z,21.83
2019-01-11T21:55:36.350Z,24.30
2019-01-11T21:57:40.090Z,23.57
2019-01-11T21:59:43.892Z,19.73
2019-01-11T22:01:47.554Z,19.23
2019-01-11T22:03:51.284Z,19.53
2019-01-11T22:05:55.015Z,20.80
2019-01-11T22:07:58.719Z,21.37
2019-01-11T22:10:02.563Z,20.80
2019-01-11T22:12:06.318Z,21.77
2019-01-11T22:14:10.116Z,22.40
2019-01-11T22:16:13.733Z,18.40
2019-01-11T22:18:17.495Z,18.30
2019-01-11T22:20:21.291Z,21.10
2019-01-11T22:22:24.904Z,22.07
2019-01-11T22:24:28.601Z,23.07
2019-01-11T22:26:32.333Z,21.43
2019-01-11T22:28:36.095Z,21.10
2019-01-11T22:30:39.767Z,19.57
2019-01-11T22:32:43.459Z,21.03
2019-01-11T22:34:47.142Z,20.80
2019-01-11T22:36:50.828Z,21.27
2019-01-11T22:38:54.566Z,19.07
2019-01-11T22:40:58.356Z,21.43
2019-01-11T22:43:02.057Z,20.23
2019-01-11T22:45:09.105Z,19.60
2019-01-11T22:47:13.299Z,18.67
2019-01-11T22:49:17.129Z,18.40
2019-01-11T22:51:20.788Z,17.60
2019-01-11T22:53:24.534Z,18.83
2019-01-11T22:55:28.373Z,18.80
2019-01-11T22:57:32.018Z,17.33
2019-01-11T22:59:35.810Z,18.07
2019-01-11T23:01:48.381Z,18.17
2019-01-11T23:03:52.055Z,20.20
2019-01-11T23:06:09.177Z,19.10
2019-01-11T23:08:15.049Z,20.20
2019-01-11T23:10:30.369Z,17.93
2019-01-11T23:12:37.173Z,18.87
2019-01-11T23:14:40.882Z,19.63
2019-01-11T23:16:44.803Z,20.67
2019-01-11T23:18:50.153Z,21.63
2019-01-11T23:20:53.997Z,21.10
2019-01-11T23:22:57.670Z,23.13
2019-01-11T23:25:01.437Z,23.07
2019-01-11T23:27:05.170Z,21.20
2019-01-11T23:29:08.822Z,22.20
2019-01-11T23:31:12.546Z,21.80
2019-01-11T23:33:16.213Z,20.27
2019-01-11T23:35:20.079Z,21.07
2019-01-11T23:37:23.916Z,21.47
2019-01-11T23:39:27.613Z,23.00
2019-01-11T23:41:31.321Z,21.73
2019-01-11T23:43:35.055Z,22.73
2019-01-11T23:45:38.929Z,22.13
2019-01-11T23:47:42.589Z,20.77
2019-01-11T23:49:46.327Z,21.73
2019-01-11T23:51:50.106Z,22.93
2019-01-11T23:53:54.003Z,21.27
2019-01-11T23:55:59.097Z,24.53
2019-01-11T23:58:02.742Z,22.10
